createdAt,value
2018-07-14T00:00:32.595Z,82.51
2018-07-14T00:01:32.750Z,82.60
2018-07-14T00:02:32.932Z,82.41
2018-07-14T00:03:33.106Z,83.08
2018-07-14T00:04:33.287Z,82.98
2018-07-14T00:05:33.496Z,83.18
2018-07-14T00:06:33.635Z,82.51
2018-07-14T00:07:33.818Z,82.70
2018-07-14T00:08:33.984Z,82.51
2018-07-14T00:09:34.180Z,82.70
2018-07-14T00:10:34.337Z,82.41
2018-07-14T00:11:34.526Z,82.60
2018-07-14T00:12:34.680Z,83.18
2018-07-14T00:13:34.838Z,83.08
2018-07-14T00:14:35.017Z,82.98
2018-07-14T00:15:35.202Z,82.79
2018-07-14T00:16:35.371Z,82.79
2018-07-14T00:17:35.542Z,82.51
2018-07-14T00:18:35.724Z,82.31
2018-07-14T00:19:36.182Z,82.03
2018-07-14T00:20:36.078Z,82.60
2018-07-14T00:21:36.255Z,82.21
2018-07-14T00:22:36.426Z,82.51
2018-07-14T00:23:36.613Z,82.31
2018-07-14T00:24:36.781Z,82.60
2018-07-14T00:25:36.953Z,82.31
2018-07-14T00:26:37.111Z,82.89
2018-07-14T00:27:37.295Z,83.27
2018-07-14T00:28:37.459Z,83.18
2018-07-14T00:29:37.902Z,82.89
2018-07-14T00:30:37.829Z,82.89
2018-07-14T00:31:38.014Z,83.27
2018-07-14T00:32:38.179Z,82.98
2018-07-14T00:33:38.357Z,82.89
2018-07-14T00:34:38.525Z,84.00
2018-07-14T00:35:38.699Z,83.81
2018-07-14T00:36:38.877Z,83.91
2018-07-14T00:37:39.063Z,83.91
2018-07-14T00:38:39.239Z,84.09
2018-07-14T00:39:39.419Z,84.00
2018-07-14T00:40:39.597Z,84.38
2018-07-14T00:41:39.771Z,84.77
2018-07-14T00:42:39.962Z,85.15
2018-07-14T00:43:40.135Z,84.77
2018-07-14T00:44:40.311Z,84.67
2018-07-14T00:45:40.492Z,84.63
2018-07-14T00:46:40.660Z,85.21
2018-07-14T00:47:40.852Z,85.01
2018-07-14T00:48:41.002Z,85.15
2018-07-14T00:49:41.171Z,84.82
2018-07-14T00:50:41.341Z,85.05
2018-07-14T00:51:41.505Z,85.15
2018-07-14T00:52:41.690Z,85.05
2018-07-14T00:53:41.892Z,84.72
2018-07-14T00:54:42.068Z,85.39
2018-07-14T00:55:42.240Z,85.30
2018-07-14T00:56:42.413Z,85.49
2018-07-14T00:57:42.588Z,85.30
2018-07-14T00:58:42.752Z,86.07
2018-07-14T00:59:42.921Z,85.88
2018-07-14T01:00:43.090Z,85.97
2018-07-14T01:01:43.278Z,85.88
2018-07-14T01:02:43.459Z,86.07
2018-07-14T01:03:43.617Z,85.97
2018-07-14T01:04:43.785Z,86.25
2018-07-14T01:05:43.964Z,85.97
2018-07-14T01:06:44.133Z,85.78
2018-07-14T01:07:44.295Z,85.78
2018-07-14T01:08:44.465Z,86.25
2018-07-14T01:09:44.634Z,86.07
2018-07-14T01:10:44.842Z,86.25
2018-07-14T01:11:44.998Z,86.35
2018-07-14T01:12:45.160Z,86.25
2018-07-14T01:13:45.320Z,86.16
2018-07-14T01:14:45.499Z,86.35
2018-07-14T01:15:45.678Z,86.25
2018-07-14T01:16:45.865Z,86.83
2018-07-14T01:17:46.106Z,86.83
2018-07-14T01:18:46.229Z,86.64
2018-07-14T01:19:46.647Z,86.35
2018-07-14T01:20:46.582Z,86.07
2018-07-14T01:21:46.756Z,86.25
2018-07-14T01:22:46.938Z,85.88
2018-07-14T01:23:47.114Z,86.35
2018-07-14T01:24:47.285Z,86.64
2018-07-14T01:25:47.471Z,85.97
2018-07-14T01:26:47.645Z,85.97
2018-07-14T01:27:47.823Z,86.54
2018-07-14T01:28:48.008Z,86.45
2018-07-14T01:29:48.191Z,85.88
2018-07-14T01:30:48.366Z,85.88
2018-07-14T01:31:48.558Z,86.45
2018-07-14T01:32:48.721Z,86.25
2018-07-14T01:33:48.897Z,86.25
2018-07-14T01:34:49.074Z,85.78
2018-07-14T01:35:49.253Z,86.07
2018-07-14T01:36:49.418Z,85.78
2018-07-14T01:37:49.588Z,85.97
2018-07-14T01:38:49.767Z,85.97
2018-07-14T01:39:49.952Z,86.07
2018-07-14T01:40:50.134Z,85.39
2018-07-14T01:41:50.310Z,85.78
2018-07-14T01:42:50.727Z,85.78
2018-07-14T01:43:50.660Z,86.16
2018-07-14T01:44:50.819Z,86.25
2018-07-14T01:45:50.989Z,86.25
2018-07-14T01:46:51.168Z,86.69
2018-07-14T01:47:51.346Z,87.46
2018-07-14T01:48:51.516Z,87.17
2018-07-14T01:49:51.700Z,87.27
2018-07-14T01:50:51.853Z,87.74
2018-07-14T01:51:52.025Z,87.46
2018-07-14T01:52:52.191Z,87.74
2018-07-14T01:53:52.372Z,87.84
2018-07-14T01:54:52.547Z,88.51
2018-07-14T01:55:52.734Z,88.61
2018-07-14T01:56:52.909Z,88.70
2018-07-14T01:57:53.110Z,88.32
2018-07-14T01:58:53.244Z,88.61
2018-07-14T01:59:53.418Z,88.32
2018-07-14T02:00:53.594Z,88.18
2018-07-14T02:01:53.779Z,88.76
2018-07-14T02:02:53.946Z,88.28
2018-07-14T02:03:54.145Z,88.56
2018-07-14T02:04:54.331Z,88.47
2018-07-14T02:05:54.506Z,88.85
2018-07-14T02:06:54.686Z,89.43
2018-07-14T02:07:54.862Z,88.47
2018-07-14T02:08:55.042Z,88.66
2018-07-14T02:09:55.213Z,88.09
2018-07-14T02:10:55.390Z,88.37
2018-07-14T02:11:55.572Z,88.56
2018-07-14T02:12:55.740Z,88.47
2018-07-14T02:13:55.926Z,88.76
2018-07-14T02:14:56.106Z,88.47
2018-07-14T02:15:56.265Z,88.37
2018-07-14T02:16:56.441Z,88.56
2018-07-14T02:17:56.610Z,88.47
2018-07-14T02:18:56.772Z,88.28
2018-07-14T02:19:56.941Z,88.56
2018-07-14T02:20:57.128Z,88.47
2018-07-14T02:21:57.277Z,88.56
2018-07-14T02:22:57.442Z,88.47
2018-07-14T02:23:57.632Z,88.37
2018-07-14T02:24:57.776Z,88.76
2018-07-14T02:25:57.959Z,89.14
2018-07-14T02:26:58.124Z,89.62
2018-07-14T02:27:58.300Z,89.14
2018-07-14T02:28:58.462Z,89.14
2018-07-14T02:29:58.638Z,89.04
2018-07-14T02:30:58.809Z,89.62
2018-07-14T02:31:58.980Z,89.72
2018-07-14T02:32:59.161Z,89.52
2018-07-14T02:33:59.335Z,89.33
2018-07-14T02:34:59.508Z,89.04
2018-07-14T02:35:59.700Z,89.33
2018-07-14T02:36:59.860Z,89.00
2018-07-14T02:38:00.040Z,89.90
2018-07-14T02:39:00.208Z,89.52
2018-07-14T02:40:00.383Z,89.72
2018-07-14T02:41:00.560Z,89.14
2018-07-14T02:42:00.735Z,89.67
2018-07-14T02:43:00.904Z,89.33
2018-07-14T02:44:01.075Z,88.90
2018-07-14T02:45:01.233Z,89.00
2018-07-14T02:46:01.393Z,89.48
2018-07-14T02:47:01.574Z,89.67
2018-07-14T02:48:01.759Z,89.76
2018-07-14T02:49:01.936Z,89.95
2018-07-14T02:50:02.120Z,90.15
2018-07-14T02:51:02.283Z,90.82
2018-07-14T02:52:02.447Z,91.11
2018-07-14T02:53:02.611Z,90.53
2018-07-14T02:54:02.777Z,90.53
2018-07-14T02:55:02.959Z,89.48
2018-07-14T02:56:03.139Z,89.95
2018-07-14T02:57:03.318Z,89.67
2018-07-14T02:58:03.522Z,89.76
2018-07-14T02:59:03.667Z,89.38
2018-07-14T03:00:03.849Z,90.05
2018-07-14T03:01:04.008Z,89.58
2018-07-14T03:02:04.195Z,89.33
2018-07-14T03:03:04.370Z,89.81
2018-07-14T03:04:04.565Z,89.29
2018-07-14T03:05:04.733Z,89.19
2018-07-14T03:06:04.900Z,90.53
2018-07-14T03:07:05.060Z,90.82
2018-07-14T03:08:05.226Z,90.91
2018-07-14T03:09:05.403Z,91.01
2018-07-14T03:10:05.583Z,90.91
2018-07-14T03:11:05.752Z,90.91
2018-07-14T03:12:05.921Z,90.15
2018-07-14T03:13:06.088Z,90.53
2018-07-14T03:14:06.244Z,90.05
2018-07-14T03:15:06.437Z,89.86
2018-07-14T03:16:06.839Z,90.34
2018-07-14T03:17:06.779Z,90.53
2018-07-14T03:18:06.947Z,90.44
2018-07-14T03:19:07.107Z,90.53
2018-07-14T03:20:07.286Z,90.24
2018-07-14T03:21:07.491Z,90.44
2018-07-14T03:22:07.680Z,90.24
2018-07-14T03:23:07.829Z,90.53
2018-07-14T03:24:08.002Z,90.05
2018-07-14T03:25:08.171Z,90.72
2018-07-14T03:26:08.599Z,90.82
2018-07-14T03:27:08.521Z,91.01
2018-07-14T03:28:08.695Z,90.53
2018-07-14T03:29:08.874Z,90.05
2018-07-14T03:30:09.095Z,89.48
2018-07-14T03:31:09.220Z,89.86
2018-07-14T03:32:09.402Z,89.76
2018-07-14T03:33:09.603Z,90.15
2018-07-14T03:34:09.741Z,90.77
2018-07-14T03:35:09.917Z,90.72
2018-07-14T03:36:10.337Z,90.63
2018-07-14T03:37:10.279Z,90.34
2018-07-14T03:38:10.450Z,90.53
2018-07-14T03:39:10.630Z,90.34
2018-07-14T03:40:10.808Z,90.34
2018-07-14T03:41:10.989Z,90.15
2018-07-14T03:42:11.142Z,90.30
2018-07-14T03:43:11.320Z,90.53
2018-07-14T03:44:11.499Z,90.44
2018-07-14T03:45:11.676Z,90.48
2018-07-14T03:46:12.086Z,90.53
2018-07-14T03:47:12.035Z,90.01
2018-07-14T03:48:12.189Z,90.58
2018-07-14T03:49:12.368Z,90.58
2018-07-14T03:50:12.542Z,90.10
2018-07-14T03:51:12.717Z,90.77
2018-07-14T03:52:12.889Z,91.06
2018-07-14T03:53:13.075Z,91.06
2018-07-14T03:54:13.256Z,91.35
2018-07-14T03:55:13.438Z,90.96
2018-07-14T03:56:13.600Z,91.44
2018-07-14T03:57:13.781Z,90.87
2018-07-14T03:58:13.947Z,91.44
2018-07-14T03:59:14.131Z,91.25
2018-07-14T04:00:14.294Z,90.91
2018-07-14T04:01:14.486Z,90.58
2018-07-14T04:02:14.653Z,91.30
2018-07-14T04:03:14.818Z,91.01
2018-07-14T04:04:14.980Z,91.20
2018-07-14T04:05:15.160Z,90.87
2018-07-14T04:06:15.328Z,90.48
2018-07-14T04:07:15.501Z,90.63
2018-07-14T04:08:15.679Z,91.20
2018-07-14T04:09:15.889Z,90.72
2018-07-14T04:10:16.025Z,90.91
2018-07-14T04:11:16.184Z,90.24
2018-07-14T04:12:16.372Z,90.34
2018-07-14T04:13:16.530Z,89.76
2018-07-14T04:14:16.704Z,89.76
2018-07-14T04:15:16.888Z,89.95
2018-07-14T04:16:17.072Z,90.53
2018-07-14T04:17:17.256Z,90.44
2018-07-14T04:18:17.425Z,90.15
2018-07-14T04:19:17.594Z,90.34
2018-07-14T04:20:17.769Z,90.53
2018-07-14T04:21:17.935Z,90.05
2018-07-14T04:22:18.122Z,90.05
2018-07-14T04:23:18.305Z,89.76
2018-07-14T04:24:18.501Z,89.81
2018-07-14T04:25:18.657Z,89.33
2018-07-14T04:26:18.820Z,89.52
2018-07-14T04:27:18.994Z,89.43
2018-07-14T04:28:19.173Z,88.56
2018-07-14T04:29:19.342Z,87.21
2018-07-14T04:30:19.510Z,84.48
2018-07-14T04:31:19.679Z,82.07
2018-07-14T04:32:19.867Z,78.94
2018-07-14T04:33:20.032Z,76.81
2018-07-14T04:34:20.207Z,74.63
2018-07-14T04:35:20.375Z,72.94
2018-07-14T04:36:20.564Z,71.49
2018-07-14T04:37:20.719Z,69.89
2018-07-14T04:38:20.895Z,68.70
2018-07-14T04:39:21.069Z,68.87
2018-07-14T04:40:21.259Z,68.04
2018-07-14T04:41:21.424Z,66.88
2018-07-14T04:42:21.663Z,66.39
2018-07-14T04:43:21.798Z,65.37
2018-07-14T04:44:21.984Z,65.24
2018-07-14T04:45:22.159Z,65.17
2018-07-14T04:46:22.397Z,63.73
2018-07-14T04:47:22.525Z,64.24
2018-07-14T04:48:22.711Z,63.85
2018-07-14T04:49:22.897Z,64.15
2018-07-14T04:50:23.082Z,63.02
2018-07-14T04:51:23.256Z,62.34
2018-07-14T04:52:23.414Z,61.02
2018-07-14T04:53:23.597Z,60.76
2018-07-14T04:54:23.778Z,60.86
2018-07-14T04:55:23.972Z,60.57
2018-07-14T04:56:24.156Z,59.80
2018-07-14T04:57:24.332Z,59.89
2018-07-14T04:58:24.518Z,60.09
2018-07-14T04:59:24.692Z,61.02
2018-07-14T05:00:24.868Z,60.83
2018-07-14T05:01:25.055Z,60.96
2018-07-14T05:02:25.268Z,59.70
2018-07-14T05:03:25.419Z,59.70
2018-07-14T05:04:25.612Z,60.21
2018-07-14T05:05:25.785Z,59.15
2018-07-14T05:06:26.082Z,58.60
2018-07-14T05:07:26.153Z,57.63
2018-07-14T05:08:26.348Z,56.88
2018-07-14T05:09:26.540Z,56.98
2018-07-14T05:10:26.715Z,56.79
2018-07-14T05:11:26.900Z,56.11
2018-07-14T05:12:27.092Z,56.50
2018-07-14T05:13:27.282Z,56.50
2018-07-14T05:14:27.444Z,56.98
2018-07-14T05:15:27.614Z,56.88
2018-07-14T05:16:27.797Z,56.88
2018-07-14T05:17:28.007Z,57.44
2018-07-14T05:18:28.141Z,57.18
2018-07-14T05:19:28.354Z,57.18
2018-07-14T05:20:28.506Z,56.88
2018-07-14T05:21:28.789Z,56.79
2018-07-14T05:22:28.872Z,56.76
2018-07-14T05:23:29.043Z,57.18
2018-07-14T05:24:29.226Z,56.60
2018-07-14T05:25:29.407Z,55.46
2018-07-14T05:26:29.579Z,55.10
2018-07-14T05:27:29.770Z,54.91
2018-07-14T05:28:29.970Z,54.69
2018-07-14T05:29:30.113Z,55.76
2018-07-14T05:30:30.547Z,54.71
2018-07-14T05:31:30.728Z,55.66
2018-07-14T05:32:30.675Z,55.17
2018-07-14T05:33:30.848Z,55.30
2018-07-14T05:34:31.041Z,54.95
2018-07-14T05:35:31.236Z,54.91
2018-07-14T05:36:31.407Z,54.55
2018-07-14T05:37:31.610Z,53.49
2018-07-14T05:38:31.775Z,53.22
2018-07-14T05:39:31.961Z,52.54
2018-07-14T05:40:32.204Z,51.86
2018-07-14T05:41:32.339Z,53.29
2018-07-14T05:42:32.541Z,53.09
2018-07-14T05:43:32.700Z,53.39
2018-07-14T05:44:32.891Z,53.51
2018-07-14T05:45:33.079Z,53.22
2018-07-14T05:46:33.266Z,52.54
2018-07-14T05:47:33.456Z,53.22
2018-07-14T05:48:33.662Z,53.49
2018-07-14T05:49:33.820Z,53.31
2018-07-14T05:50:33.994Z,53.09
2018-07-14T05:51:34.200Z,53.58
2018-07-14T05:52:34.389Z,54.62
2018-07-14T05:53:34.564Z,54.52
2018-07-14T05:54:34.748Z,54.16
2018-07-14T05:55:34.933Z,52.66
2018-07-14T05:56:35.113Z,51.53
2018-07-14T05:57:35.291Z,51.59
2018-07-14T05:58:35.482Z,51.89
2018-07-14T05:59:35.676Z,52.01
2018-07-14T06:00:35.840Z,51.81
2018-07-14T06:01:36.006Z,51.23
2018-07-14T06:02:36.209Z,50.94
2018-07-14T06:03:36.378Z,50.68
2018-07-14T06:04:36.582Z,51.14
2018-07-14T06:05:36.751Z,50.38
2018-07-14T06:06:36.925Z,50.48
2018-07-14T06:07:37.104Z,50.48
2018-07-14T06:08:37.281Z,50.09
2018-07-14T06:09:37.467Z,50.38
2018-07-14T06:10:37.655Z,49.73
2018-07-14T06:11:37.846Z,49.73
2018-07-14T06:12:38.023Z,50.09
2018-07-14T06:13:38.232Z,50.38
2018-07-14T06:14:38.395Z,50.48
2018-07-14T06:15:38.572Z,50.68
2018-07-14T06:16:38.765Z,50.29
2018-07-14T06:17:38.953Z,50.48
2018-07-14T06:18:39.130Z,49.63
2018-07-14T06:19:39.378Z,49.44
2018-07-14T06:20:39.527Z,49.82
2018-07-14T06:21:39.687Z,49.44
2018-07-14T06:22:39.861Z,48.68
2018-07-14T06:23:40.059Z,48.58
2018-07-14T06:24:40.258Z,48.49
2018-07-14T06:25:40.705Z,48.22
2018-07-14T06:26:40.609Z,48.39
2018-07-14T06:27:40.794Z,48.95
2018-07-14T06:28:40.975Z,50.36
2018-07-14T06:29:41.158Z,51.04
2018-07-14T06:30:41.342Z,50.87
2018-07-14T06:31:41.542Z,50.74
2018-07-14T06:32:41.730Z,50.51
2018-07-14T06:33:41.888Z,50.21
2018-07-14T06:34:42.069Z,49.51
2018-07-14T06:36:42.436Z,51.23
2018-07-14T06:37:42.625Z,50.94
2018-07-14T06:38:42.838Z,50.41
2018-07-14T06:39:43.015Z,49.85
2018-07-14T06:40:43.212Z,49.27
2018-07-14T06:41:43.405Z,48.57
2018-07-14T06:42:43.592Z,49.17
2018-07-14T06:43:43.754Z,48.97
2018-07-14T06:44:43.967Z,48.97
2018-07-14T06:45:44.150Z,48.88
2018-07-14T06:46:44.295Z,48.97
2018-07-14T06:47:44.482Z,49.73
2018-07-14T06:48:44.652Z,49.54
2018-07-14T06:49:44.845Z,49.63
2018-07-14T06:50:45.022Z,49.54
2018-07-14T06:51:45.219Z,51.28
2018-07-14T06:52:45.396Z,52.76
2018-07-14T06:53:45.572Z,53.41
2018-07-14T06:54:45.773Z,53.41
2018-07-14T06:55:45.974Z,53.12
2018-07-14T06:56:46.142Z,54.28
2018-07-14T06:57:46.331Z,53.24
2018-07-14T06:58:46.503Z,52.95
2018-07-14T06:59:46.705Z,53.31
2018-07-14T07:00:46.856Z,53.80
2018-07-14T07:01:47.067Z,54.45
2018-07-14T07:02:47.270Z,55.22
2018-07-14T07:03:47.427Z,55.94
2018-07-14T07:04:47.623Z,57.33
2018-07-14T07:05:47.813Z,56.52
2018-07-14T07:06:47.997Z,56.00
2018-07-14T07:07:48.190Z,56.04
2018-07-14T07:08:48.371Z,56.82
2018-07-14T07:09:48.563Z,56.75
2018-07-14T07:10:48.743Z,54.38
2018-07-14T07:11:48.925Z,53.51
2018-07-14T07:12:49.125Z,51.81
2018-07-14T07:13:49.371Z,50.87
2018-07-14T07:14:49.508Z,50.29
2018-07-14T07:15:49.713Z,50.68
2018-07-14T07:16:49.869Z,50.77
2018-07-14T07:17:50.053Z,50.09
2018-07-14T07:18:50.255Z,49.34
2018-07-14T07:19:50.447Z,49.15
2018-07-14T07:20:50.640Z,49.27
2018-07-14T07:21:50.794Z,48.39
2018-07-14T07:22:51.976Z,46.96
2018-07-14T07:23:51.157Z,46.01
2018-07-14T07:24:51.351Z,45.81
2018-07-14T07:25:51.524Z,44.30
2018-07-14T07:26:51.708Z,43.89
2018-07-14T07:27:51.898Z,43.96
2018-07-14T07:28:52.152Z,43.29
2018-07-14T07:29:52.237Z,43.36
2018-07-14T07:30:52.440Z,44.14
2018-07-14T07:31:52.596Z,45.38
2018-07-14T07:32:52.801Z,44.72
2018-07-14T07:33:53.058Z,44.79
2018-07-14T07:34:53.181Z,44.24
2018-07-14T07:35:53.360Z,44.31
2018-07-14T07:36:53.537Z,44.43
2018-07-14T07:37:53.724Z,45.75
2018-07-14T07:38:53.908Z,45.28
2018-07-14T07:39:54.083Z,45.53
2018-07-14T07:40:54.275Z,46.77
2018-07-14T07:41:54.463Z,46.75
2018-07-14T07:42:54.641Z,47.01
2018-07-14T07:43:54.811Z,45.67
2018-07-14T07:44:55.010Z,44.41
2018-07-14T07:45:55.197Z,44.14
2018-07-14T07:46:55.365Z,43.87
2018-07-14T07:47:55.547Z,43.40
2018-07-14T07:48:55.743Z,43.29
2018-07-14T07:49:55.921Z,42.53
2018-07-14T07:50:56.090Z,42.80
2018-07-14T07:51:56.270Z,43.38
2018-07-14T07:52:56.468Z,43.58
2018-07-14T07:53:56.643Z,42.91
2018-07-14T07:54:56.831Z,41.96
2018-07-14T07:55:56.996Z,42.43
2018-07-14T07:56:57.167Z,42.53
2018-07-14T07:57:57.367Z,41.99
2018-07-14T07:58:57.530Z,41.79
2018-07-14T07:59:57.705Z,42.16
2018-07-14T08:00:57.894Z,41.60
2018-07-14T08:01:58.051Z,41.13
2018-07-14T08:02:58.222Z,41.22
2018-07-14T08:03:58.400Z,40.47
2018-07-14T08:04:58.597Z,40.45
2018-07-14T08:05:58.764Z,40.83
2018-07-14T08:06:58.974Z,40.45
2018-07-14T08:07:59.160Z,40.66
2018-07-14T08:08:59.363Z,40.37
2018-07-14T08:09:59.509Z,41.30
2018-07-14T08:10:59.731Z,41.67
2018-07-14T08:11:59.932Z,42.35
2018-07-14T08:13:00.104Z,43.07
2018-07-14T08:14:00.277Z,44.45
2018-07-14T08:15:00.482Z,43.67
2018-07-14T08:16:00.657Z,42.84
2018-07-14T08:17:00.837Z,42.04
2018-07-14T08:18:01.020Z,43.07
2018-07-14T08:19:01.196Z,43.85
2018-07-14T08:20:01.389Z,43.48
2018-07-14T08:21:01.567Z,42.53
2018-07-14T08:22:01.725Z,42.16
2018-07-14T08:23:01.980Z,41.55
2018-07-14T08:24:02.173Z,41.77
2018-07-14T08:25:02.295Z,42.04
2018-07-14T08:26:02.477Z,42.95
2018-07-14T08:27:02.670Z,43.09
2018-07-14T08:28:02.848Z,42.50
2018-07-14T08:29:03.026Z,42.04
2018-07-14T08:30:03.224Z,41.19
2018-07-14T08:31:03.398Z,40.89
2018-07-14T08:32:03.614Z,40.89
2018-07-14T08:33:03.767Z,39.82
2018-07-14T08:34:03.954Z,37.41
2018-07-14T08:35:04.117Z,36.72
2018-07-14T08:36:04.331Z,36.41
2018-07-14T08:37:04.478Z,38.89
2018-07-14T08:38:04.728Z,40.52
2018-07-14T08:39:04.829Z,39.96
2018-07-14T08:40:05.005Z,39.84
2018-07-14T08:41:05.208Z,41.94
2018-07-14T08:42:05.390Z,41.47
2018-07-14T08:43:05.543Z,40.60
2018-07-14T08:44:05.750Z,40.97
2018-07-14T08:45:05.921Z,40.31
2018-07-14T08:46:06.103Z,38.70
2018-07-14T08:47:06.338Z,38.89
2018-07-14T08:48:06.535Z,38.62
2018-07-14T08:49:06.718Z,37.10
2018-07-14T08:50:06.903Z,36.53
2018-07-14T08:51:07.133Z,35.83
2018-07-14T08:52:07.251Z,36.79
2018-07-14T08:53:07.449Z,39.06
2018-07-14T08:54:07.628Z,38.98
2018-07-14T08:55:07.813Z,37.43
2018-07-14T08:56:07.999Z,38.65
2018-07-14T08:57:08.457Z,38.89
2018-07-14T08:58:08.425Z,39.37
2018-07-14T08:59:08.547Z,38.62
2018-07-14T09:00:08.768Z,38.24
2018-07-14T09:01:08.902Z,38.46
2018-07-14T09:02:09.093Z,38.75
2018-07-14T09:03:09.524Z,37.89
2018-07-14T09:04:09.490Z,38.10
2018-07-14T09:05:09.648Z,38.20
2018-07-14T09:06:09.840Z,37.63
2018-07-14T09:07:10.128Z,37.45
2018-07-14T09:08:10.220Z,37.52
2018-07-14T09:09:10.389Z,37.45
2018-07-14T09:10:10.560Z,36.78
2018-07-14T09:11:10.743Z,36.29
2018-07-14T09:12:11.203Z,36.58
2018-07-14T09:13:12.096Z,37.62
2018-07-14T09:14:11.417Z,37.45
2018-07-14T09:15:12.287Z,37.15
2018-07-14T09:16:11.767Z,36.49
2018-07-14T09:17:11.943Z,35.92
2018-07-14T09:18:12.114Z,35.33
2018-07-14T09:19:12.312Z,35.51
2018-07-14T09:20:12.499Z,35.61
2018-07-14T09:21:12.692Z,35.41
2018-07-14T09:22:12.876Z,34.26
2018-07-14T09:23:13.056Z,33.89
2018-07-14T09:24:13.253Z,33.59
2018-07-14T09:25:13.437Z,33.98
2018-07-14T09:26:13.650Z,33.58
2018-07-14T09:27:13.768Z,34.69
2018-07-14T09:28:13.957Z,34.97
2018-07-14T09:29:14.123Z,36.51
2018-07-14T09:30:14.314Z,37.18
2018-07-14T09:31:14.497Z,37.74
2018-07-14T09:32:14.655Z,37.00
2018-07-14T09:33:14.855Z,36.32
2018-07-14T09:34:15.028Z,36.53
2018-07-14T09:35:15.226Z,36.06
2018-07-14T09:36:15.412Z,35.94
2018-07-14T09:37:15.639Z,35.77
2018-07-14T09:38:15.788Z,35.49
2018-07-14T09:39:15.960Z,35.20
2018-07-14T09:40:16.149Z,35.10
2018-07-14T09:41:16.339Z,35.20
2018-07-14T09:42:16.524Z,35.67
2018-07-14T09:43:16.702Z,36.53
2018-07-14T09:44:16.924Z,36.43
2018-07-14T09:45:17.083Z,36.53
2018-07-14T09:46:17.236Z,36.41
2018-07-14T09:47:17.419Z,36.43
2018-07-14T09:48:17.601Z,36.63
2018-07-14T09:49:17.770Z,36.25
2018-07-14T09:50:17.950Z,35.96
2018-07-14T09:51:18.136Z,35.77
2018-07-14T09:52:18.312Z,36.24
2018-07-14T09:53:18.491Z,36.33
2018-07-14T09:54:18.670Z,36.80
2018-07-14T09:55:19.025Z,36.43
2018-07-14T09:56:19.070Z,36.16
2018-07-14T09:57:19.268Z,36.16
2018-07-14T09:58:19.446Z,37.00
2018-07-14T09:59:19.626Z,37.68
2018-07-14T10:00:19.806Z,37.66
2018-07-14T10:01:19.987Z,37.87
2018-07-14T10:03:20.387Z,36.35
2018-07-14T10:04:20.507Z,36.55
2018-07-14T10:05:20.692Z,36.08
2018-07-14T10:06:20.896Z,35.41
2018-07-14T10:07:21.065Z,35.51
2018-07-14T10:08:21.290Z,35.02
2018-07-14T10:09:21.438Z,33.97
2018-07-14T10:10:21.632Z,33.75
2018-07-14T10:11:21.819Z,35.26
2018-07-14T10:12:22.001Z,36.51
2018-07-14T10:13:22.200Z,37.39
2018-07-14T10:14:22.397Z,38.98
2018-07-14T10:15:22.567Z,38.93
2018-07-14T10:16:22.737Z,38.26
2018-07-14T10:17:22.982Z,38.17
2018-07-14T10:18:23.117Z,37.85
2018-07-14T10:19:23.317Z,38.42
2018-07-14T10:20:23.528Z,39.76
2018-07-14T10:21:23.659Z,39.00
2018-07-14T10:22:23.945Z,38.93
2018-07-14T10:23:24.039Z,38.56
2018-07-14T10:24:24.224Z,37.41
2018-07-14T10:25:24.527Z,37.39
2018-07-14T10:26:24.604Z,37.50
2018-07-14T10:27:24.777Z,36.63
2018-07-14T10:28:24.960Z,36.35
2018-07-14T10:29:25.145Z,36.76
2018-07-14T10:30:25.335Z,36.27
2018-07-14T10:31:25.507Z,36.71
2018-07-14T10:32:25.680Z,37.95
2018-07-14T10:33:25.874Z,38.54
2018-07-14T10:34:26.053Z,37.85
2018-07-14T10:35:26.232Z,37.48
2018-07-14T10:36:26.410Z,37.85
2018-07-14T10:37:26.583Z,38.07
2018-07-14T10:38:26.796Z,37.50
2018-07-14T10:39:27.023Z,36.76
2018-07-14T10:40:27.181Z,36.37
2018-07-14T10:41:27.379Z,35.78
2018-07-14T10:42:27.600Z,36.27
2018-07-14T10:43:27.716Z,36.45
2018-07-14T10:44:27.909Z,36.24
2018-07-14T10:45:28.092Z,36.72
2018-07-14T10:46:28.244Z,36.72
2018-07-14T10:47:28.430Z,37.31
2018-07-14T10:48:28.613Z,37.50
2018-07-14T10:49:28.796Z,36.72
2018-07-14T10:50:28.996Z,37.39
2018-07-14T10:51:29.244Z,37.48
2018-07-14T10:52:29.356Z,38.09
2018-07-14T10:53:29.602Z,37.77
2018-07-14T10:54:29.735Z,37.48
2018-07-14T10:55:29.917Z,37.39
2018-07-14T10:56:30.157Z,37.58
2018-07-14T10:57:30.307Z,38.81
2018-07-14T10:58:30.486Z,39.00
2018-07-14T10:59:30.681Z,40.06
2018-07-14T11:00:30.883Z,40.06
2018-07-14T11:01:31.047Z,39.96
2018-07-14T11:02:31.210Z,39.76
2018-07-14T11:03:31.401Z,40.34
2018-07-14T11:04:31.685Z,40.15
2018-07-14T11:05:31.762Z,40.06
2018-07-14T11:06:31.997Z,40.69
2018-07-14T11:07:32.129Z,42.33
2018-07-14T11:08:32.343Z,42.23
2018-07-14T11:09:32.488Z,41.94
2018-07-14T11:10:32.706Z,41.77
2018-07-14T11:11:32.830Z,41.01
2018-07-14T11:12:33.024Z,40.52
2018-07-14T11:13:33.198Z,40.56
2018-07-14T11:14:33.410Z,40.17
2018-07-14T11:15:33.611Z,39.51
2018-07-14T11:16:33.781Z,39.69
2018-07-14T11:17:34.222Z,39.59
2018-07-14T11:18:34.163Z,38.75
2018-07-14T11:19:34.326Z,38.75
2018-07-14T11:20:34.496Z,37.99
2018-07-14T11:21:34.659Z,37.89
2018-07-14T11:22:34.842Z,37.43
2018-07-14T11:23:35.051Z,37.23
2018-07-14T11:24:35.206Z,36.74
2018-07-14T11:25:35.388Z,37.23
2018-07-14T11:26:35.566Z,36.86
2018-07-14T11:27:35.755Z,36.29
2018-07-14T11:28:35.959Z,36.00
2018-07-14T11:29:36.129Z,34.94
2018-07-14T11:30:36.322Z,34.55
2018-07-14T11:32:36.666Z,35.02
2018-07-14T11:33:36.858Z,35.14
2018-07-14T11:34:37.129Z,35.53
2018-07-14T11:35:37.204Z,35.24
2018-07-14T11:36:37.396Z,35.92
2018-07-14T11:37:37.664Z,35.41
2018-07-14T11:38:37.785Z,35.41
2018-07-14T11:39:37.992Z,34.84
2018-07-14T11:40:38.171Z,35.43
2018-07-14T11:41:38.369Z,36.02
2018-07-14T11:42:38.534Z,35.90
2018-07-14T11:43:38.749Z,35.61
2018-07-14T11:44:38.874Z,35.90
2018-07-14T11:45:39.073Z,36.25
2018-07-14T11:46:39.272Z,36.84
2018-07-14T11:47:39.476Z,37.41
2018-07-14T11:48:39.709Z,37.12
2018-07-14T11:49:39.790Z,37.58
2018-07-14T11:50:40.018Z,38.36
2018-07-14T11:51:40.148Z,38.44
2018-07-14T11:52:40.355Z,38.73
2018-07-14T11:53:40.503Z,38.83
2018-07-14T11:54:40.703Z,38.46
2018-07-14T11:55:40.861Z,38.44
2018-07-14T11:56:41.050Z,38.36
2018-07-14T11:57:41.227Z,38.95
2018-07-14T11:58:41.411Z,38.26
2018-07-14T11:59:41.601Z,38.57
2018-07-14T12:00:41.775Z,37.52
2018-07-14T12:01:41.946Z,37.71
2018-07-14T12:02:42.431Z,37.43
2018-07-14T12:03:42.318Z,36.74
2018-07-14T12:04:42.487Z,36.25
2018-07-14T12:06:42.841Z,36.45
2018-07-14T12:07:43.010Z,36.33
2018-07-14T12:08:43.218Z,36.35
2018-07-14T12:09:43.382Z,36.25
2018-07-14T12:10:43.573Z,36.57
2018-07-14T12:11:43.765Z,36.63
2018-07-14T12:12:43.964Z,37.31
2018-07-14T12:13:44.137Z,37.39
2018-07-14T12:14:44.295Z,37.48
2018-07-14T12:15:44.493Z,37.37
2018-07-14T12:16:44.656Z,37.39
2018-07-14T12:17:44.847Z,37.39
2018-07-14T12:18:45.021Z,37.00
2018-07-14T12:19:45.215Z,36.72
2018-07-14T12:20:45.387Z,36.92
2018-07-14T12:21:45.591Z,36.43
2018-07-14T12:22:45.766Z,37.12
2018-07-14T12:23:45.949Z,36.94
2018-07-14T12:24:46.143Z,37.13
2018-07-14T12:25:46.320Z,36.57
2018-07-14T12:26:46.587Z,36.55
2018-07-14T12:27:46.665Z,36.66
2018-07-14T12:28:46.934Z,36.55
2018-07-14T12:29:47.089Z,36.45
2018-07-14T12:30:47.282Z,36.45
2018-07-14T12:31:47.495Z,36.27
2018-07-14T12:32:47.669Z,35.78
2018-07-14T12:33:47.838Z,35.78
2018-07-14T12:34:47.996Z,35.78
2018-07-14T12:35:48.170Z,35.88
2018-07-14T12:36:48.424Z,35.78
2018-07-14T12:37:48.553Z,35.49
2018-07-14T12:38:48.730Z,34.91
2018-07-14T12:39:48.935Z,35.47
2018-07-14T12:40:49.101Z,35.85
2018-07-14T12:41:49.276Z,35.96
2018-07-14T12:42:49.463Z,36.04
2018-07-14T12:43:49.637Z,36.04
2018-07-14T12:44:49.810Z,35.96
2018-07-14T12:45:50.028Z,35.86
2018-07-14T12:46:50.172Z,35.96
2018-07-14T12:47:50.336Z,35.77
2018-07-14T12:48:50.532Z,36.16
2018-07-14T12:49:50.720Z,36.06
2018-07-14T12:50:50.908Z,36.25
2018-07-14T12:51:51.110Z,36.16
2018-07-14T12:52:51.261Z,35.96
2018-07-14T12:53:51.489Z,36.14
2018-07-14T12:54:51.619Z,36.51
2018-07-14T12:55:51.803Z,36.71
2018-07-14T12:56:51.987Z,37.50
2018-07-14T12:57:52.291Z,36.45
2018-07-14T12:58:52.389Z,36.45